Disclaimer

Please do not use the information listed here in-flight or in-navigation, as they are not provided to us by the airports but are provided by volunteers, so they might be outdated.

Search


Regions


Airport information page

Radio informations:
Tower (TWR) - 118.2 MHz
RAMP - 121.6 MHz
Ground (GND) - 121.95 MHz
DEP - 124.2 MHz
Clearance delivery - 121.9 MHz
Automatic Terminal Information Service (ATIS) - 128.25 MHz
Approach (APP) - 124.4 MHz

Airport informations:
Latitude: 35° 45' 53.00" N
Longitude: 140° 23' 11.00" E
Elevation: 141 feet - 43 meters
Operating hours: N/A
Operating agency: Civil government, landing fees and diplomatic clearance may be required
Timezone: UTC+9
Fuel: Jet fuel avaiable but type is unknown.

Runway information:
16R/34L - 13123 x 196 feet< - >4000 x 60 meters
16L/34R - 7152 x 196 feet< - >2180 x 60 meters

Recent METARs:
RJAA 182230Z 32006KT 3200 BR FEW002 BKN003 11/11 Q1014 NOSIG RMK 2ST002 7ST003 A2995
RJAA 182300Z 33006KT 4000 BR FEW003 BKN004 BKN006 11/11 Q1014 BECMG FEW003 BKN008
RJAA 182330Z 31003KT 260V340 5000 BR FEW003 SCT004 BKN006 12/11 Q1014 BECMG FEW006 BKN012

Airport on the map: